Time;durP1;ratioP1;P1;durP2;ratioP2;P2;SDS_P1;SDS_P2;PMS_P1;PMS_P2;Temp;Humidity;BMP_temperature;BMP_pressure;BME280_temperature;BME280_humidity;BME280_pressure;Samples;Min_cycle;Max_cycle;Signal;HPM_P1;HPM_P2
2023/07/21 00:00:53;;;;;;;3.47;0.88;;;;;;;25.32;68.49;100035.06;5112204;27;20111;-73
2023/07/21 00:03:19;;;;;;;2.45;1.10;;;;;;;25.30;69.17;100045.16;5109782;27;20059;-73
2023/07/21 00:05:44;;;;;;;1.85;0.75;;;;;;;25.19;70.03;100047.97;5096312;28;20035;-73
2023/07/21 00:08:10;;;;;;;4.85;0.98;;;;;;;25.14;70.67;100048.72;5119041;27;20542;-73
2023/07/21 00:10:35;;;;;;;2.38;1.10;;;;;;;25.10;71.47;100044.94;5116428;27;20031;-72
2023/07/21 00:13:01;;;;;;;2.80;1.25;;;;;;;24.96;72.16;100046.41;5113589;28;20085;-73
2023/07/21 00:15:27;;;;;;;3.00;1.08;;;;;;;24.89;71.13;100051.09;5112462;27;20024;-73
2023/07/21 00:17:52;;;;;;;2.13;0.70;;;;;;;24.98;69.47;100047.78;5114722;27;20466;-73
2023/07/21 00:20:25;;;;;;;1.52;0.80;;;;;;;25.04;68.69;100049.44;5112781;27;20122;-71
2023/07/21 00:22:51;;;;;;;1.45;0.80;;;;;;;25.05;68.24;100055.53;5116327;27;20027;-73
2023/07/21 00:25:17;;;;;;;2.05;0.70;;;;;;;25.04;68.29;100048.63;5112034;28;20068;-72
2023/07/21 00:27:43;;;;;;;2.80;0.95;;;;;;;25.00;68.03;100039.53;5119726;27;20035;-73
2023/07/21 00:30:09;;;;;;;1.70;0.90;;;;;;;24.96;67.86;100043.75;5115372;27;20055;-73
2023/07/21 00:32:36;;;;;;;3.95;0.82;;;;;;;24.96;68.00;100025.09;5112971;27;20104;-72
2023/07/21 00:35:08;;;;;;;4.78;1.75;;;;;;;24.92;68.12;100024.75;5113027;28;20067;-73
2023/07/21 00:37:37;;;;;;;3.15;0.88;;;;;;;24.90;67.99;100029.53;5113471;27;20032;-73
2023/07/21 00:40:05;;;;;;;1.63;0.93;;;;;;;24.89;69.09;100037.75;5116136;27;20032;-72
2023/07/21 00:42:31;;;;;;;3.53;0.80;;;;;;;24.88;70.57;100041.47;5116362;27;20088;-73
2023/07/21 00:44:56;;;;;;;1.95;0.82;;;;;;;24.74;71.53;100041.84;5116001;27;20024;-73
2023/07/21 00:47:23;;;;;;;2.00;0.82;;;;;;;24.60;72.46;100029.94;5114456;27;20053;-73
2023/07/21 00:49:49;;;;;;;2.38;0.80;;;;;;;24.47;73.52;100027.66;5114898;27;20028;-73
2023/07/21 00:52:17;;;;;;;5.20;0.95;;;;;;;24.38;73.71;100029.13;5114352;27;20035;-73
2023/07/21 00:54:44;;;;;;;3.00;0.75;;;;;;;24.21;74.92;100021.13;5118285;27;20041;-73
2023/07/21 00:57:10;;;;;;;1.92;0.65;;;;;;;24.12;75.60;100026.06;5112311;28;20032;-73
2023/07/21 00:59:36;;;;;;;1.13;0.77;;;;;;;24.07;75.42;100020.69;5110910;27;20059;-73
2023/07/21 01:02:03;;;;;;;3.38;1.25;;;;;;;24.00;75.56;100012.06;5123376;27;20054;-73
2023/07/21 01:04:30;;;;;;;1.90;1.15;;;;;;;23.96;76.06;100026.91;5116945;27;20040;-72
2023/07/21 01:06:57;;;;;;;4.38;0.93;;;;;;;23.93;76.16;100024.72;5117338;27;20110;-73
2023/07/21 01:09:24;;;;;;;2.08;0.85;;;;;;;23.93;76.30;100026.56;5112491;27;20038;-73
2023/07/21 01:11:55;;;;;;;2.63;0.98;;;;;;;23.92;77.17;100024.97;5117649;27;20408;-73
2023/07/21 01:14:21;;;;;;;2.83;0.77;;;;;;;23.96;76.85;100024.25;5110534;28;20049;-73
2023/07/21 01:16:48;;;;;;;4.40;1.17;;;;;;;24.02;75.49;100007.31;5113393;28;20028;-73
2023/07/21 01:19:15;;;;;;;2.25;0.77;;;;;;;24.00;75.42;99997.94;5112640;28;20115;-72
2023/07/21 01:21:51;;;;;;;2.85;1.08;;;;;;;23.98;74.95;99992.88;5112772;28;20036;-73
2023/07/21 01:24:42;;;;;;;2.42;0.80;;;;;;;24.10;70.93;100014.84;5112730;28;20474;-73
2023/07/21 01:27:12;;;;;;;2.17;0.80;;;;;;;24.28;71.02;100019.13;5109063;28;20054;-73
2023/07/21 01:29:41;;;;;;;3.28;0.60;;;;;;;24.37;70.80;100016.88;5112345;28;20045;-73
2023/07/21 01:32:10;;;;;;;3.72;0.70;;;;;;;24.33;71.68;100003.25;5113135;28;20528;-73
2023/07/21 01:34:37;;;;;;;4.63;0.90;;;;;;;24.27;71.09;99993.56;5113225;27;20386;-73
2023/07/21 01:37:04;;;;;;;1.70;0.50;;;;;;;24.24;71.07;99987.91;5093532;28;20038;-73
2023/07/21 01:39:31;;;;;;;2.55;0.80;;;;;;;24.18;71.36;99984.34;5113827;27;20486;-73
2023/07/21 01:42:00;;;;;;;2.25;0.55;;;;;;;24.20;72.10;99984.09;5113831;27;20509;-73
2023/07/21 01:44:25;;;;;;;3.80;0.75;;;;;;;24.10;72.99;99980.25;5113236;27;20389;-73
2023/07/21 01:46:52;;;;;;;3.28;0.80;;;;;;;24.00;74.39;99985.44;5113056;27;20114;-73
2023/07/21 01:49:18;;;;;;;3.55;0.70;;;;;;;23.85;74.67;99973.78;5112269;28;20106;-74
2023/07/21 01:51:45;;;;;;;1.67;0.65;;;;;;;23.75;74.46;99969.09;5112284;27;20119;-73
2023/07/21 01:54:29;;;;;;;2.45;0.50;;;;;;;23.71;75.05;99973.28;5114616;27;20074;-73
2023/07/21 01:57:06;;;;;;;1.55;0.50;;;;;;;23.65;75.29;99963.63;5111972;28;20119;-72
2023/07/21 01:59:31;;;;;;;3.47;0.73;;;;;;;23.57;75.33;99964.84;5112563;27;20030;-73
2023/07/21 02:01:57;;;;;;;2.95;0.70;;;;;;;23.52;76.35;99966.59;5119718;27;20019;-72
2023/07/21 02:04:23;;;;;;;3.10;0.57;;;;;;;23.44;77.06;99957.97;5110280;27;20039;-72
2023/07/21 02:06:50;;;;;;;2.35;1.02;;;;;;;23.39;77.69;99957.06;5114461;27;20080;-73
2023/07/21 02:09:15;;;;;;;2.78;0.80;;;;;;;23.41;75.69;99963.75;5114514;27;20036;-73
2023/07/21 02:11:43;;;;;;;1.35;0.60;;;;;;;23.58;74.71;99963.81;5114005;27;20429;-73
2023/07/21 02:14:08;;;;;;;3.97;0.47;;;;;;;23.70;73.11;99972.47;5114532;27;20035;-72
2023/07/21 02:16:34;;;;;;;3.03;0.40;;;;;;;23.90;71.62;99974.66;5120714;27;20339;-73
2023/07/21 02:19:00;;;;;;;1.60;0.50;;;;;;;24.02;69.98;99979.88;5122911;27;20132;-73
2023/07/21 02:21:25;;;;;;;1.75;0.73;;;;;;;24.14;70.00;99996.53;5116668;27;20028;-72
2023/07/21 02:23:51;;;;;;;1.35;0.60;;;;;;;24.07;71.48;100007.38;5112442;27;20023;-72
2023/07/21 02:26:16;;;;;;;1.38;0.57;;;;;;;23.97;72.82;100022.38;5114532;27;20023;-73
2023/07/21 02:28:42;;;;;;;1.48;0.38;;;;;;;23.87;72.84;100024.88;5114041;27;20028;-73
2023/07/21 02:31:09;;;;;;;3.80;0.88;;;;;;;23.90;71.66;100008.44;5111145;28;20019;-73
2023/07/21 02:33:35;;;;;;;1.50;0.57;;;;;;;23.98;70.36;100019.47;5111127;28;20076;-73
2023/07/21 02:36:03;;;;;;;2.45;0.65;;;;;;;24.09;68.84;100013.25;5110774;27;20143;-72
2023/07/21 02:38:29;;;;;;;1.65;0.50;;;;;;;24.21;68.15;100009.69;5114138;27;20490;-72
2023/07/21 02:40:55;;;;;;;1.13;0.50;;;;;;;24.27;67.50;100008.72;5116684;27;20042;-72
2023/07/21 02:43:23;;;;;;;5.95;0.55;;;;;;;24.23;67.29;99999.59;5112831;27;20031;-73
2023/07/21 02:45:53;;;;;;;1.13;0.40;;;;;;;24.22;67.54;100005.97;5093103;28;20119;-73
2023/07/21 02:48:19;;;;;;;3.90;0.50;;;;;;;24.20;67.64;100014.19;5113961;27;20478;-73
2023/07/21 02:50:50;;;;;;;1.83;0.50;;;;;;;24.16;68.12;100016.53;5108271;27;20049;-73
2023/07/21 02:53:16;;;;;;;1.20;0.40;;;;;;;24.17;67.73;100017.34;5111505;27;20024;-73
2023/07/21 02:55:43;;;;;;;4.97;0.40;;;;;;;24.15;66.98;100016.78;5111706;27;20034;-73
2023/07/21 02:58:11;;;;;;;2.45;0.50;;;;;;;24.16;66.25;100023.72;5110708;28;20055;-73
2023/07/21 03:00:36;;;;;;;1.67;0.40;;;;;;;24.14;66.47;100025.81;5110053;27;20028;-72
2023/07/21 03:03:03;;;;;;;2.13;1.05;;;;;;;24.14;66.78;100042.59;5108313;27;20122;-72
2023/07/21 03:05:29;;;;;;;1.92;0.50;;;;;;;24.13;66.21;100040.97;5113649;27;20027;-72
2023/07/21 03:07:56;;;;;;;4.22;0.60;;;;;;;24.14;65.26;100050.56;5112760;27;20028;-72
2023/07/21 03:10:22;;;;;;;1.70;0.50;;;;;;;24.15;65.62;100032.75;5119578;27;20027;-72
2023/07/21 03:12:47;;;;;;;1.85;0.52;;;;;;;24.14;65.92;100025.81;5110185;28;20474;-72
2023/07/21 03:15:14;;;;;;;2.95;0.40;;;;;;;24.13;65.52;100013.56;5112423;27;20084;-69
2023/07/21 03:17:39;;;;;;;1.00;0.40;;;;;;;24.08;65.30;100006.34;5120594;27;20039;-73
2023/07/21 03:20:11;;;;;;;1.15;0.40;;;;;;;24.10;65.60;100004.19;5110551;28;20100;-73
2023/07/21 03:22:37;;;;;;;0.98;0.43;;;;;;;24.11;65.68;100003.16;5109690;28;20084;-73
2023/07/21 03:25:06;;;;;;;1.30;0.40;;;;;;;24.10;65.59;100003.44;5112006;27;20032;-73
2023/07/21 03:27:32;;;;;;;1.17;0.50;;;;;;;24.14;64.98;100004.53;5112199;27;20023;-73
2023/07/21 03:29:58;;;;;;;1.27;0.30;;;;;;;24.13;65.04;100009.03;5110347;28;20063;-72
2023/07/21 03:32:23;;;;;;;0.98;0.40;;;;;;;24.12;65.26;100034.03;5112428;27;20063;-72
2023/07/21 03:34:49;;;;;;;3.88;1.02;;;;;;;24.12;65.35;100050.00;5109905;28;20051;-71
2023/07/21 03:37:14;;;;;;;2.90;0.30;;;;;;;24.16;65.55;100053.78;5111806;28;20045;-71
2023/07/21 03:39:44;;;;;;;1.13;0.50;;;;;;;24.14;65.76;100034.59;5112967;28;20114;-72
2023/07/21 03:42:10;;;;;;;1.05;0.40;;;;;;;24.11;66.01;100043.06;5109230;28;20055;-72
2023/07/21 03:44:35;;;;;;;6.68;0.90;;;;;;;24.08;66.31;100037.47;5112578;28;20558;-71
2023/07/21 03:47:00;;;;;;;3.58;0.50;;;;;;;24.01;66.05;100034.97;5112548;28;20035;-72
2023/07/21 03:49:26;;;;;;;1.10;0.50;;;;;;;24.03;65.77;100034.72;5111650;28;20084;-72
2023/07/21 03:51:51;;;;;;;1.83;0.50;;;;;;;24.01;65.68;100023.50;5108399;28;20038;-72
2023/07/21 03:54:17;;;;;;;1.92;0.50;;;;;;;24.03;65.94;100016.91;5113534;28;20470;-72
2023/07/21 03:56:42;;;;;;;0.85;0.40;;;;;;;24.01;66.17;100003.03;5112196;28;20043;-72
2023/07/21 03:59:08;;;;;;;1.08;0.52;;;;;;;23.97;66.00;99998.44;5108327;28;20027;-72
2023/07/21 04:01:33;;;;;;;4.50;0.65;;;;;;;23.99;65.86;100018.44;5117345;28;20031;-72
2023/07/21 04:03:58;;;;;;;2.72;0.60;;;;;;;24.01;67.00;100029.63;5111847;28;20110;-72
2023/07/21 04:06:24;;;;;;;2.33;0.60;;;;;;;23.95;68.72;100030.59;5117518;28;20043;-72
2023/07/21 04:08:53;;;;;;;2.15;0.60;;;;;;;23.88;68.57;100014.00;5102306;28;20031;-72
2023/07/21 04:11:19;;;;;;;2.05;0.70;;;;;;;23.87;67.98;100015.03;5110729;28;20031;-68
2023/07/21 04:13:44;;;;;;;2.88;0.50;;;;;;;23.85;67.46;99995.84;5111864;28;20032;-68
2023/07/21 04:16:11;;;;;;;2.38;0.50;;;;;;;23.82;67.62;99988.38;5111385;28;20023;-68
2023/07/21 04:18:37;;;;;;;3.83;0.60;;;;;;;23.77;70.37;99983.78;5108299;28;20027;-68
2023/07/21 04:21:03;;;;;;;2.75;0.55;;;;;;;23.64;72.60;99977.97;5117052;28;20059;-68
2023/07/21 04:23:28;;;;;;;2.80;0.70;;;;;;;23.42;75.88;99970.69;5113925;28;20107;-68
2023/07/21 04:25:54;;;;;;;2.92;0.55;;;;;;;23.25;74.42;99977.81;5109530;28;20076;-68
2023/07/21 04:28:19;;;;;;;2.85;0.52;;;;;;;23.26;76.29;99992.72;5115149;28;20031;-68
2023/07/21 04:30:47;;;;;;;1.42;0.70;;;;;;;23.13;78.82;99998.34;5116152;28;20042;-68
2023/07/21 04:33:13;;;;;;;1.52;0.70;;;;;;;22.99;80.97;99997.03;5112623;28;20375;-69
2023/07/21 04:35:48;;;;;;;1.35;0.60;;;;;;;22.86;82.80;100002.59;5111043;28;20074;-69
2023/07/21 04:38:14;;;;;;;1.50;0.55;;;;;;;22.84;83.12;100006.28;5112243;28;20457;-68
2023/07/21 04:40:44;;;;;;;2.33;0.50;;;;;;;22.80;80.03;99989.22;5108940;28;20036;-69
2023/07/21 04:43:11;;;;;;;1.35;0.70;;;;;;;22.80;78.73;99951.22;5114464;27;20426;-69
2023/07/21 04:45:40;;;;;;;2.47;0.70;;;;;;;22.82;76.78;99965.88;5116670;27;20032;-69
2023/07/21 04:48:05;;;;;;;3.25;0.40;;;;;;;22.81;76.52;99990.84;5112123;27;20441;-69
2023/07/21 04:50:31;;;;;;;0.90;0.40;;;;;;;22.82;76.88;100003.06;5113460;27;20119;-69
2023/07/21 04:52:57;;;;;;;1.30;0.45;;;;;;;22.77;78.44;100004.78;5114676;27;20126;-69
2023/07/21 04:55:22;;;;;;;1.90;0.50;;;;;;;22.68;79.13;100012.34;5116373;27;20035;-71
2023/07/21 04:57:48;;;;;;;2.55;0.50;;;;;;;22.69;80.49;100013.13;5112391;27;20032;-69
2023/07/21 05:00:15;;;;;;;1.75;1.15;;;;;;;22.66;82.30;100018.91;5119167;27;20085;-69
2023/07/21 05:02:41;;;;;;;3.17;0.60;;;;;;;22.58;81.82;100006.81;5095347;28;20027;-71
2023/07/21 05:05:07;;;;;;;0.73;0.40;;;;;;;22.59;80.59;99997.00;5114601;27;20076;-70
2023/07/21 05:07:33;;;;;;;1.65;0.77;;;;;;;22.68;78.90;99985.78;5113190;27;20049;-69
2023/07/21 05:09:58;;;;;;;2.72;0.73;;;;;;;22.74;77.78;99979.50;5112881;27;20027;-69
2023/07/21 05:12:25;;;;;;;2.53;0.60;;;;;;;22.80;77.18;99961.84;5113848;27;20035;-68
2023/07/21 05:14:51;;;;;;;2.55;0.85;;;;;;;22.86;76.21;99970.72;5109629;27;20031;-69
2023/07/21 05:17:17;;;;;;;10.93;4.13;;;;;;;22.97;75.54;99972.53;5116408;27;20049;-70
2023/07/21 05:19:44;;;;;;;5.20;1.42;;;;;;;23.05;73.50;99985.44;5113321;27;20035;-69
2023/07/21 05:22:09;;;;;;;6.45;1.75;;;;;;;23.14;73.42;99984.03;5115984;27;20036;-69
2023/07/21 05:24:35;;;;;;;7.00;1.67;;;;;;;23.18;73.39;99980.63;5119095;27;20042;-68
2023/07/21 05:27:00;;;;;;;3.20;0.95;;;;;;;23.25;72.92;99995.63;5116253;27;20051;-68
2023/07/21 05:29:26;;;;;;;1.55;0.40;;;;;;;23.35;71.85;99987.81;5112057;27;20027;-67
2023/07/21 05:31:52;;;;;;;2.88;0.40;;;;;;;23.42;70.48;99991.94;5116234;27;20037;-69
2023/07/21 05:34:18;;;;;;;2.10;0.60;;;;;;;23.40;70.80;99988.72;5111785;28;20451;-68
2023/07/21 05:36:43;;;;;;;2.42;0.50;;;;;;;23.34;69.93;99995.00;5116266;27;20051;-69
2023/07/21 05:39:08;;;;;;;1.25;0.32;;;;;;;23.37;70.78;99996.38;5113155;27;20074;-68
2023/07/21 05:41:34;;;;;;;3.60;0.55;;;;;;;23.34;69.79;99994.19;5118657;27;20374;-69
2023/07/21 05:43:59;;;;;;;3.10;0.40;;;;;;;23.37;70.14;99989.19;5117796;27;20039;-69
2023/07/21 05:46:25;;;;;;;1.92;0.52;;;;;;;23.43;69.75;99988.25;5103889;28;20080;-68
2023/07/21 05:48:50;;;;;;;1.67;0.60;;;;;;;23.55;69.32;100001.50;5113821;27;20027;-68
2023/07/21 05:51:17;;;;;;;1.73;0.50;;;;;;;23.68;68.11;99993.19;5114664;27;20372;-68
2023/07/21 05:53:43;;;;;;;1.40;0.50;;;;;;;23.80;67.72;100003.75;5115520;27;20081;-68
2023/07/21 05:56:11;;;;;;;0.98;0.47;;;;;;;23.80;67.86;99996.59;5119729;27;20363;-70
2023/07/21 05:58:37;;;;;;;4.57;0.50;;;;;;;23.82;67.73;99991.03;5110885;28;20069;-70
2023/07/21 06:01:03;;;;;;;1.20;0.50;;;;;;;23.87;67.25;99998.28;5111384;27;20534;-69
2023/07/21 06:03:29;;;;;;;0.88;0.38;;;;;;;24.03;67.05;99997.47;5111780;27;20031;-69
2023/07/21 06:05:54;;;;;;;2.15;0.30;;;;;;;24.27;66.71;99996.22;5115854;27;20032;-69
2023/07/21 06:08:21;;;;;;;3.95;0.40;;;;;;;24.24;66.15;99983.38;5117340;27;20031;-69
2023/07/21 06:10:46;;;;;;;2.72;0.50;;;;;;;24.15;66.82;99980.31;5112570;27;20070;-68
2023/07/21 06:13:12;;;;;;;1.55;0.52;;;;;;;24.06;66.73;99989.00;5123136;27;20496;-69
2023/07/21 06:15:38;;;;;;;1.85;0.30;;;;;;;23.98;66.77;99990.22;5113338;27;20115;-68
2023/07/21 06:18:04;;;;;;;5.60;0.50;;;;;;;24.00;67.36;99998.75;5117621;27;20027;-70
2023/07/21 06:20:29;;;;;;;1.92;0.68;;;;;;;24.05;66.76;100000.69;5113209;27;20023;-69
2023/07/21 06:22:56;;;;;;;2.10;0.40;;;;;;;24.11;66.88;100003.16;5117039;27;20050;-69
2023/07/21 06:25:21;;;;;;;1.35;0.47;;;;;;;24.31;66.46;100005.34;5117303;27;20146;-70
2023/07/21 06:27:48;;;;;;;1.60;0.88;;;;;;;24.52;66.24;100006.41;5111012;28;20529;-69
2023/07/21 06:30:14;;;;;;;1.10;0.43;;;;;;;24.66;67.42;99997.00;5116190;27;20038;-69
2023/07/21 06:32:40;;;;;;;2.55;0.82;;;;;;;24.75;67.92;100000.03;5112067;27;20031;-68
2023/07/21 06:35:07;;;;;;;1.60;0.70;;;;;;;24.79;68.38;99999.28;5111414;27;20411;-69
2023/07/21 06:37:33;;;;;;;1.48;0.40;;;;;;;24.87;68.64;99997.25;5110975;27;20080;-69
2023/07/21 06:39:59;;;;;;;3.03;0.63;;;;;;;24.86;68.23;99995.63;5112243;27;20028;-69
2023/07/21 06:42:24;;;;;;;3.03;0.70;;;;;;;24.84;67.95;99997.72;5111027;27;20043;-69
2023/07/21 06:44:50;;;;;;;3.42;0.80;;;;;;;24.91;68.09;99993.81;5118591;27;20034;-69
2023/07/21 06:47:16;;;;;;;1.52;0.60;;;;;;;24.97;68.85;100000.06;5117632;27;20019;-69
2023/07/21 06:49:42;;;;;;;2.83;0.70;;;;;;;24.97;68.70;99997.38;5114727;27;20111;-69
2023/07/21 06:52:08;;;;;;;1.40;0.73;;;;;;;24.93;69.77;100001.56;5114843;27;20187;-69
2023/07/21 06:54:35;;;;;;;2.42;0.40;;;;;;;24.86;70.21;100008.94;5112210;27;20148;-69
2023/07/21 06:57:01;;;;;;;5.10;0.75;;;;;;;24.76;69.85;99996.31;5119437;27;20435;-69
2023/07/21 06:59:26;;;;;;;1.70;0.85;;;;;;;24.79;69.93;100004.63;5110978;27;20031;-69
2023/07/21 07:01:52;;;;;;;1.80;0.70;;;;;;;24.86;69.55;100006.28;5107825;27;20475;-68
2023/07/21 07:04:17;;;;;;;3.40;0.80;;;;;;;24.86;69.48;100003.63;5118762;27;20031;-69
2023/07/21 07:06:43;;;;;;;9.45;1.70;;;;;;;24.95;69.23;100002.13;5114032;27;20042;-68
2023/07/21 07:09:08;;;;;;;1.90;0.63;;;;;;;25.07;68.56;100006.28;5111559;27;20042;-69
2023/07/21 07:11:34;;;;;;;3.60;0.50;;;;;;;25.08;67.13;100009.75;5115028;27;20546;-68
2023/07/21 07:14:00;;;;;;;1.67;0.40;;;;;;;25.11;67.71;100006.56;5110345;27;20694;-69
2023/07/21 07:16:25;;;;;;;2.00;0.68;;;;;;;25.15;68.26;100007.69;5108219;28;20028;-70
2023/07/21 07:18:51;;;;;;;2.95;0.65;;;;;;;25.18;68.64;100007.19;5114310;27;20039;-69
2023/07/21 07:21:17;;;;;;;2.30;0.47;;;;;;;25.23;68.76;100004.56;5110962;27;20030;-69
2023/07/21 07:23:42;;;;;;;3.00;0.60;;;;;;;25.13;69.18;100012.47;5112432;27;20032;-74
2023/07/21 07:26:07;;;;;;;1.50;0.55;;;;;;;25.29;69.02;100010.75;5110212;28;20035;-69
2023/07/21 07:28:33;;;;;;;2.05;0.77;;;;;;;25.34;67.66;100000.94;5110366;27;20044;-70
2023/07/21 07:31:05;;;;;;;2.70;0.70;;;;;;;25.19;66.81;99994.66;5111405;28;20378;-69
2023/07/21 07:33:33;;;;;;;3.40;0.70;;;;;;;25.11;67.27;99993.25;5112352;28;20023;-70
2023/07/21 07:36:02;;;;;;;3.88;0.80;;;;;;;25.05;67.07;100004.91;5114021;27;20403;-69
2023/07/21 07:38:29;;;;;;;3.67;0.68;;;;;;;25.23;66.54;100007.25;5111008;28;20034;-70
2023/07/21 07:41:01;;;;;;;2.65;0.70;;;;;;;25.42;65.63;100011.16;5112773;27;20166;-69
2023/07/21 07:43:26;;;;;;;2.83;0.60;;;;;;;25.42;65.05;100013.03;5111052;28;20038;-69
2023/07/21 07:45:52;;;;;;;1.60;0.57;;;;;;;25.32;64.29;100011.06;5113423;28;20031;-69
2023/07/21 07:48:18;;;;;;;1.42;0.57;;;;;;;25.33;64.37;100007.34;5110594;28;20027;-70
2023/07/21 07:50:43;;;;;;;2.05;0.50;;;;;;;25.28;64.13;100004.63;5110176;28;20028;-69
2023/07/21 07:53:09;;;;;;;0.80;0.50;;;;;;;25.26;65.17;100006.72;5103451;28;20024;-69
2023/07/21 07:55:44;;;;;;;5.22;0.80;;;;;;;25.30;67.39;100021.19;5104634;28;20031;-69
2023/07/21 07:58:10;;;;;;;2.25;0.63;;;;;;;25.26;67.49;100027.25;5110487;28;20118;-74
2023/07/21 08:00:38;;;;;;;2.60;0.50;;;;;;;25.18;67.20;100020.50;5113552;28;20028;-72
2023/07/21 08:03:10;;;;;;;2.22;0.52;;;;;;;25.09;66.17;100006.03;5110243;28;20066;-68
2023/07/21 08:05:37;;;;;;;3.22;0.60;;;;;;;25.05;65.82;99999.56;5113513;28;20060;-69
2023/07/21 08:08:03;;;;;;;0.80;0.40;;;;;;;25.13;65.95;100007.94;5112321;28;20094;-68
2023/07/21 08:10:32;;;;;;;2.35;0.55;;;;;;;25.35;65.32;100017.75;5115569;28;20504;-69
2023/07/21 08:13:00;;;;;;;2.88;0.60;;;;;;;25.54;65.45;100018.16;5109093;28;20024;-69
2023/07/21 08:15:26;;;;;;;1.20;0.60;;;;;;;25.67;65.44;100009.78;5107627;28;20039;-68
2023/07/21 08:17:52;;;;;;;1.52;0.60;;;;;;;25.78;64.97;100003.47;5115968;27;20027;-69
2023/07/21 08:20:18;;;;;;;2.28;0.50;;;;;;;25.81;64.94;100010.97;5107497;28;20031;-68
2023/07/21 08:22:53;;;;;;;2.97;0.65;;;;;;;25.79;64.86;100010.44;5112828;28;20039;-69
2023/07/21 08:25:19;;;;;;;2.35;0.50;;;;;;;25.79;65.36;100002.41;5110714;28;20027;-68
2023/07/21 08:27:45;;;;;;;1.30;0.60;;;;;;;25.89;65.11;100007.84;5110597;28;20043;-69
2023/07/21 08:30:14;;;;;;;1.75;0.65;;;;;;;25.93;65.71;100011.59;5110370;28;20027;-68
2023/07/21 08:32:40;;;;;;;2.60;0.60;;;;;;;25.75;65.75;100012.78;5107282;27;20096;-68
2023/07/21 08:35:07;;;;;;;1.42;0.50;;;;;;;25.67;65.41;100012.47;5112251;27;20167;-69
2023/07/21 08:37:33;;;;;;;1.30;0.70;;;;;;;25.54;66.03;100012.84;5099237;28;23281;-68
2023/07/21 08:39:59;;;;;;;2.33;0.75;;;;;;;25.46;66.17;100006.13;5113780;28;20032;-68
2023/07/21 08:42:25;;;;;;;2.15;0.73;;;;;;;25.52;66.12;100009.66;5113170;28;20486;-68
2023/07/21 08:44:55;;;;;;;3.17;0.70;;;;;;;25.49;65.69;100004.81;5119832;27;20031;-68
2023/07/21 08:47:24;;;;;;;2.17;0.60;;;;;;;25.43;65.41;100001.31;5094816;28;20382;-69
2023/07/21 08:49:50;;;;;;;3.72;1.15;;;;;;;25.46;65.67;99995.47;5113707;28;20383;-69
2023/07/21 08:52:16;;;;;;;4.03;1.00;;;;;;;25.66;65.18;99989.50;5113602;27;20102;-69
2023/07/21 08:54:43;;;;;;;3.58;0.98;;;;;;;26.16;63.85;99988.25;5110974;27;20130;-69
2023/07/21 08:57:11;;;;;;;2.30;1.02;;;;;;;26.39;63.59;99980.66;5111995;27;20032;-69
2023/07/21 08:59:36;;;;;;;4.00;0.80;;;;;;;26.48;63.94;99980.94;5117622;27;20878;-69
2023/07/21 09:02:01;;;;;;;3.80;0.90;;;;;;;26.40;63.87;99984.13;5108212;28;20036;-69
2023/07/21 09:04:27;;;;;;;2.53;0.90;;;;;;;26.36;64.46;99993.72;5113467;27;20092;-70
2023/07/21 09:06:55;;;;;;;1.95;1.10;;;;;;;26.25;64.99;99986.69;5110688;27;20027;-69
2023/07/21 09:09:22;;;;;;;1.33;0.70;;;;;;;26.16;65.41;99982.91;5118134;27;20424;-69
2023/07/21 09:11:49;;;;;;;2.63;0.60;;;;;;;26.23;65.82;99980.81;5116217;27;20088;-69
2023/07/21 09:14:16;;;;;;;2.72;1.20;;;;;;;26.24;66.13;99982.41;5111650;28;20535;-68
2023/07/21 09:16:48;;;;;;;1.70;0.55;;;;;;;26.15;65.95;99987.44;5113009;28;20489;-68
2023/07/21 09:19:20;;;;;;;4.50;0.60;;;;;;;26.00;66.86;99984.66;5112644;28;20035;-68
2023/07/21 09:21:55;;;;;;;2.08;0.80;;;;;;;25.95;67.18;99972.13;5113013;28;20031;-69
2023/07/21 09:24:20;;;;;;;1.58;0.80;;;;;;;25.85;67.10;99972.03;5112417;28;20106;-68
2023/07/21 09:26:46;;;;;;;5.88;0.73;;;;;;;25.81;67.19;99970.94;5112959;28;20115;-69
2023/07/21 09:29:21;;;;;;;3.47;1.00;;;;;;;25.97;67.43;99967.34;5112415;27;20038;-68
2023/07/21 09:31:47;;;;;;;1.98;0.60;;;;;;;25.96;67.39;99963.06;5111544;28;20042;-68
2023/07/21 09:34:12;;;;;;;1.13;0.50;;;;;;;26.01;67.75;99949.72;5112211;28;20046;-68
2023/07/21 09:36:45;;;;;;;1.38;0.80;;;;;;;26.03;67.40;99947.59;5107441;28;20494;-68
2023/07/21 09:39:14;;;;;;;2.40;0.80;;;;;;;26.21;66.89;99954.38;5109414;28;20111;-70
2023/07/21 09:41:40;;;;;;;1.95;1.02;;;;;;;26.46;66.85;99961.72;5109710;28;20080;-70
2023/07/21 09:44:06;;;;;;;2.83;1.05;;;;;;;26.65;66.42;99959.38;5112859;28;20020;-69
2023/07/21 09:46:33;;;;;;;1.77;0.70;;;;;;;26.75;66.29;99962.09;5112421;28;20051;-69
2023/07/21 09:48:58;;;;;;;2.97;0.70;;;;;;;26.72;66.34;99966.09;5112243;28;20457;-69
2023/07/21 09:51:26;;;;;;;1.90;0.63;;;;;;;26.73;66.00;99965.03;5112123;28;20115;-69
2023/07/21 09:53:52;;;;;;;2.85;0.82;;;;;;;26.90;65.66;99964.00;5112564;28;20478;-69
2023/07/21 09:56:20;;;;;;;3.35;0.93;;;;;;;26.99;64.64;99967.78;5111825;28;20027;-69
2023/07/21 09:59:00;;;;;;;4.55;1.10;;;;;;;26.88;64.81;99968.81;5112655;27;20106;-68
2023/07/21 10:01:26;;;;;;;5.00;0.90;;;;;;;26.63;65.88;99973.00;5110433;28;20035;-69
2023/07/21 10:03:52;;;;;;;4.60;0.90;;;;;;;26.67;66.09;99970.59;5111884;27;20032;-69
2023/07/21 10:06:19;;;;;;;1.90;0.68;;;;;;;26.61;65.91;99963.63;5112366;27;20027;-69
2023/07/21 10:08:45;;;;;;;3.53;1.00;;;;;;;26.47;66.20;99976.66;5112604;28;20039;-69
2023/07/21 10:11:12;;;;;;;3.88;0.85;;;;;;;26.37;66.28;99982.00;5112429;28;20040;-69
2023/07/21 10:13:45;;;;;;;2.08;0.63;;;;;;;26.32;66.71;99971.28;5111815;28;20049;-69
2023/07/21 10:16:11;;;;;;;4.47;1.30;;;;;;;26.27;67.14;99974.69;5111015;28;20101;-69
2023/07/21 10:19:01;;;;;;;2.28;1.00;;;;;;;26.25;67.23;99963.47;5110901;28;20482;-69
2023/07/21 10:21:47;;;;;;;5.10;1.10;;;;;;;26.24;67.54;99963.72;5109985;28;20106;-69
2023/07/21 10:24:25;;;;;;;2.80;1.55;;;;;;;26.20;67.19;99962.63;5109503;28;20036;-69
2023/07/21 10:26:56;;;;;;;2.17;0.80;;;;;;;26.26;66.55;99964.28;5112165;28;20032;-68
2023/07/21 10:29:21;;;;;;;2.20;1.08;;;;;;;26.34;66.82;99956.59;5111522;28;20105;-69
2023/07/21 10:31:52;;;;;;;2.17;1.67;;;;;;;26.42;66.56;99937.41;5112280;28;20058;-69
2023/07/21 10:34:17;;;;;;;4.97;1.25;;;;;;;26.50;66.02;99937.94;5106152;28;20037;-70
2023/07/21 10:36:52;;;;;;;2.17;1.00;;;;;;;26.61;65.56;99943.06;5111740;28;20052;-70
2023/07/21 10:39:29;;;;;;;2.97;0.82;;;;;;;26.63;65.96;99958.84;5111230;28;20035;-69
2023/07/21 10:41:56;;;;;;;2.90;1.00;;;;;;;26.54;65.84;99950.53;5111004;28;20088;-69
2023/07/21 10:44:22;;;;;;;1.85;1.13;;;;;;;26.56;65.33;99940.38;5110715;28;20066;-68
2023/07/21 10:46:49;;;;;;;1.80;0.95;;;;;;;26.60;65.21;99946.81;5110906;28;20019;-69
2023/07/21 10:49:16;;;;;;;2.97;1.00;;;;;;;26.76;65.25;99958.34;5110904;28;20031;-68
2023/07/21 10:51:44;;;;;;;3.78;1.17;;;;;;;26.91;65.53;99963.75;5112172;27;20038;-69
2023/07/21 10:54:11;;;;;;;4.20;1.23;;;;;;;26.82;65.30;99964.50;5111696;28;20031;-68
2023/07/21 10:56:44;;;;;;;7.35;1.48;;;;;;;26.76;64.13;99967.16;5110819;28;20031;-69
2023/07/21 10:59:11;;;;;;;4.45;1.35;;;;;;;26.75;65.20;99962.88;5093204;28;20074;-68
2023/07/21 11:01:48;;;;;;;2.22;1.05;;;;;;;26.83;64.99;99966.94;5111036;28;20039;-68
2023/07/21 11:04:15;;;;;;;2.55;1.02;;;;;;;26.89;64.99;99967.75;5110776;28;20035;-69
2023/07/21 11:06:49;;;;;;;13.43;2.35;;;;;;;26.94;64.52;99965.09;5111223;28;20394;-68
2023/07/21 11:09:16;;;;;;;7.00;1.35;;;;;;;26.95;64.43;99954.09;5114711;27;20032;-68
2023/07/21 11:11:47;;;;;;;2.15;1.10;;;;;;;26.80;64.66;99950.63;5117919;27;20102;-69
2023/07/21 11:14:15;;;;;;;3.10;1.20;;;;;;;26.71;64.83;99958.34;5115028;27;20028;-68
2023/07/21 11:16:55;;;;;;;3.08;1.20;;;;;;;26.73;66.23;99962.34;5108054;27;20027;-68
2023/07/21 11:19:23;;;;;;;2.72;1.50;;;;;;;26.70;64.90;99954.84;5107579;28;20031;-68
2023/07/21 11:21:50;;;;;;;3.38;1.13;;;;;;;26.77;64.67;99947.41;5106819;27;20039;-69
2023/07/21 11:24:26;;;;;;;3.30;1.23;;;;;;;26.72;64.66;99926.00;5105876;28;20096;-66
2023/07/21 11:27:02;;;;;;;2.33;1.05;;;;;;;26.59;65.30;99915.81;5111858;27;20056;-69
2023/07/21 11:29:31;;;;;;;3.47;1.50;;;;;;;26.45;65.79;99898.69;5091965;28;20040;-68